PWSweather.com
Personal Weather Stations
Station Observations
NYERIN
South Erin, Erin, NY 14838-9545

South ErinErin, NY 14838-9545

Lat: 42.150605, Lon: -76.654038

Elevation: 1663

Station Type: Davis VP Pro II

http://southerin-ny.org/wx.php

Latest ConditionsUpdated 3:32:01 AM EDT Saturday, Oct 25, 2014
Currently Today's Max Today's Min Today's Average
Temperature 43.5°F6.4°C 43.5°F6.4°C 40.1°F4.5°C 42.3°F5.7°C
Dew Point 40.2°F4.6°C 40.7°F4.8°C 31.7°F-0.2°C 37.4°F3.0°C
Winds 2.8 mph WSW4.5 kmh WSW 4.5 mph WNW7.2 kmh WNW - 1.4 mph 2.3 kmh
Wind Gusts 8.0 mph12.9 kmh 8.0 mph12.9 kmh - -
Humidity 88% 93% 66% 83%
Pressure 29.91 in1012.9 mb 29.92 in1013.2 mb 29.90 in1012.5 mb -
Hour Temp Dew Point Humidity Winds Wind Gusts Pressure Precip Precip Rate Daily Precip Total
03:32 AM 43.5°F6.4°C 40.2°F4.6°C 88% 2.8 mph WSW4.5 kmh WSW 8.0 mph12.9 kmh 29.91 in1012.9 mb 0.00 in0.0 mm 0.00 in/hr0.0 mm/hr 0.00 in0.0 mm
03:22 AM 42.9°F6.1°C 40.7°F4.8°C 92% 4.1 mph W6.6 kmh W 5.0 mph8.0 kmh 29.91 in1012.9 mb 0.00 in0.0 mm 0.00 in/hr0.0 mm/hr 0.00 in0.0 mm
03:12 AM 41.1°F5.1°C 39.3°F4.1°C 93% 1.5 mph WNW2.4 kmh WNW 3.0 mph4.8 kmh 29.91 in1012.9 mb 0.00 in0.0 mm 0.00 in/hr0.0 mm/hr 0.00 in0.0 mm
03:02 AM 41.5°F5.3°C 39.3°F4.1°C 92% 1.0 mph WNW1.6 kmh WNW 2.0 mph3.2 kmh 29.91 in1012.9 mb 0.00 in0.0 mm 0.00 in/hr0.0 mm/hr 0.00 in0.0 mm
02:52 AM 40.9°F4.9°C 37.9°F3.3°C 89% 0.6 mph WNW1.0 kmh WNW 3.0 mph4.8 kmh 29.91 in1012.9 mb 0.00 in0.0 mm 0.00 in/hr0.0 mm/hr 0.00 in0.0 mm
02:42 AM 40.1°F4.5°C 36.8°F2.7°C 88% Calm Calm -- 29.91 in1012.9 mb 0.00 in0.0 mm 0.00 in/hr0.0 mm/hr 0.00 in0.0 mm
02:32 AM 40.2°F4.6°C 36.9°F2.7°C 88% 0.9 mph WNW1.4 kmh WNW 2.0 mph3.2 kmh 29.91 in1012.9 mb 0.00 in0.0 mm 0.00 in/hr0.0 mm/hr 0.00 in0.0 mm
02:22 AM 40.5°F4.7°C 37.5°F3.1°C 89% 0.3 mph WNW0.5 kmh WNW 2.0 mph3.2 kmh 29.91 in1012.9 mb 0.00 in0.0 mm 0.00 in/hr0.0 mm/hr 0.00 in0.0 mm
02:12 AM 41.6°F5.3°C 38.3°F3.5°C 88% 0.9 mph WNW1.4 kmh WNW 2.0 mph3.2 kmh 29.90 in1012.5 mb 0.00 in0.0 mm 0.00 in/hr0.0 mm/hr 0.00 in0.0 mm
02:02 AM 42.2°F5.7°C 38.6°F3.7°C 87% 0.2 mph WNW0.3 kmh WNW -- 29.90 in1012.5 mb 0.00 in0.0 mm 0.00 in/hr0.0 mm/hr 0.00 in0.0 mm
01:52 AM 42.8°F6.0°C 38.6°F3.7°C 85% Calm Calm 1.0 mph1.6 kmh 29.90 in1012.5 mb 0.00 in0.0 mm 0.00 in/hr0.0 mm/hr 0.00 in0.0 mm
01:42 AM 43.1°F6.2°C 38.6°F3.7°C 84% 0.6 mph WNW1.0 kmh WNW 3.0 mph4.8 kmh 29.91 in1012.9 mb 0.00 in0.0 mm 0.00 in/hr0.0 mm/hr 0.00 in0.0 mm
01:32 AM 42.9°F6.1°C 38.4°F3.6°C 84% 4.5 mph WNW7.2 kmh WNW 5.0 mph8.0 kmh 29.91 in1012.9 mb 0.00 in0.0 mm 0.00 in/hr0.0 mm/hr 0.00 in0.0 mm
01:22 AM 43.2°F6.2°C 38.1°F3.4°C 82% 3.5 mph W5.6 kmh W 5.0 mph8.0 kmh 29.91 in1012.9 mb 0.00 in0.0 mm 0.00 in/hr0.0 mm/hr 0.00 in0.0 mm
01:12 AM 43.1°F6.2°C 37.7°F3.2°C 81% 3.0 mph WNW4.8 kmh WNW 5.0 mph8.0 kmh 29.91 in1012.9 mb 0.00 in0.0 mm 0.00 in/hr0.0 mm/hr 0.00 in0.0 mm
01:02 AM 43.2°F6.2°C 37.7°F3.2°C 81% 1.0 mph WNW1.6 kmh WNW 1.0 mph1.6 kmh 29.91 in1012.9 mb 0.00 in0.0 mm 0.00 in/hr0.0 mm/hr 0.00 in0.0 mm
12:52 AM 43.1°F6.2°C 37.3°F2.9°C 80% 1.2 mph NW1.9 kmh NW 5.0 mph8.0 kmh 29.92 in1013.2 mb 0.00 in0.0 mm 0.00 in/hr0.0 mm/hr 0.00 in0.0 mm
12:42 AM 43.1°F6.2°C 36.1°F2.3°C 76% 0.1 mph WNW0.2 kmh WNW 2.0 mph3.2 kmh 29.92 in1013.2 mb 0.00 in0.0 mm 0.00 in/hr0.0 mm/hr 0.00 in0.0 mm
12:32 AM 43.2°F6.2°C 35.8°F2.1°C 75% 2.7 mph WNW4.3 kmh WNW 5.0 mph8.0 kmh 29.92 in1013.2 mb 0.00 in0.0 mm 0.00 in/hr0.0 mm/hr 0.00 in0.0 mm
12:22 AM 43.1°F6.2°C 34.7°F1.5°C 72% 0.9 mph WNW1.4 kmh WNW 5.0 mph8.0 kmh 29.92 in1013.2 mb 0.00 in0.0 mm 0.00 in/hr0.0 mm/hr 0.00 in0.0 mm
12:12 AM 42.8°F6.0°C 33.3°F0.7°C 69% 0.9 mph WNW1.4 kmh WNW 6.0 mph9.7 kmh 29.92 in1013.2 mb 0.00 in0.0 mm 0.00 in/hr0.0 mm/hr 0.00 in0.0 mm
12:02 AM 42.3°F5.7°C 31.7°F-0.2°C 66% Calm Calm 1.0 mph1.6 kmh 29.92 in1013.2 mb 0.00 in0.0 mm 0.00 in/hr0.0 mm/hr 0.00 in0.0 mm